Terminal Aerodrome Forecast
Issued by NWS

Home | Current Version | Previous Version | Text Only | Print | Product List | Glossary On
Versions: 1 2 3 4 5 6 7 8 9 10 11 12 13 14 15 16 17 18 19 20 21 22 23 24 25 26 27 28 29 30 31 32 33 34
000
FTUS41 KOKX 041100
TAFHPN
TAF
KHPN 041137Z 0412/0512 VRB03KT 3SM -RA BR SCT015 BKN060
      TEMPO 0413/0417 2SM -RA BR BKN015
     FM041700 24006KT 5SM -RA BR BKN015 BKN050
     FM050200 28004KT 4SM -RA BR OVC010
     FM050600 33007KT 2SM -SN BR OVC010
     FM051000 34007KT 2SM -SN BR SCT010 OVC020
      AMD NOT SKED=

USA.gov is the U.S. government's official web portal to all federal, state and local government web resources and services.